Petersburg, West Virginia
Current Conditions -  °F | °C
As of 10:55 AM on Friday 21 Nov 2014 (Local Time) from KW99 Reporting Station
Clear Clear  
Wind Chill: 24°   Ceiling: Unl
Heat Index: 32°   Visibility: 10mi
Dew Point:   Wind: 8mph
Humidity: 28%   Direction: 330°NNW
Pressure: 30.45"   Gusts: 17mph
Location:  38.99°N, 79.12°W
Report Text: KW99 211555Z AUTO 33007G15KT 10SM CLR 00/M17 A3045 RMK AO2 T10021168
Loading
Personal Weather Stations






























Interactive Weather Map New forecast layout! Learn more

10-Day Weather Forecast

Advertisements
Track Severe Weather on mobile